Time;durP1;ratioP1;P1;durP2;ratioP2;P2;SDS_P1;SDS_P2;PMS_P1;PMS_P2;Temp;Humidity;BMP_temperature;BMP_pressure;BME280_temperature;BME280_humidity;BME280_pressure;Samples;Min_cycle;Max_cycle;Signal;HPM_P1;HPM_P2
2022/05/16 00:00:58;;;;;;;0.47;0.47;;;14.70;92.80;;;;;;4993624;28;20229;-74
2022/05/16 00:03:24;;;;;;;0.40;0.40;;;14.60;99.90;;;;;;4994103;28;20177;-74
2022/05/16 00:05:50;;;;;;;0.33;0.33;;;14.70;99.90;;;;;;4993973;28;20605;-74
2022/05/16 00:08:15;;;;;;;0.40;0.40;;;14.60;78.60;;;;;;4993945;28;20223;-74
2022/05/16 00:10:41;;;;;;;0.40;0.40;;;14.60;99.90;;;;;;4993840;28;20193;-74
2022/05/16 00:13:07;;;;;;;0.40;0.40;;;14.40;99.90;;;;;;4994234;28;20239;-74
2022/05/16 00:15:32;;;;;;;0.47;0.47;;;14.40;99.90;;;;;;4994053;28;20185;-74
2022/05/16 00:17:58;;;;;;;0.40;0.40;;;14.40;1.00;;;;;;4994000;28;20177;-74
2022/05/16 00:20:23;;;;;;;0.37;0.37;;;14.30;1.00;;;;;;4993447;28;20165;-74
2022/05/16 00:22:49;;;;;;;0.40;0.40;;;14.20;1.00;;;;;;4993911;28;20182;-74
2022/05/16 00:25:16;;;;;;;0.30;0.30;;;14.30;1.00;;;;;;4994045;28;20224;-73
2022/05/16 00:27:41;;;;;;;0.40;0.40;;;14.20;1.00;;;;;;4993833;28;20256;-74
2022/05/16 00:30:11;;;;;;;0.40;0.40;;;14.20;1.00;;;;;;4993205;28;20225;-74
2022/05/16 00:32:37;;;;;;;0.40;0.40;;;14.20;1.00;;;;;;4993510;28;20212;-74
2022/05/16 00:35:04;;;;;;;0.40;0.40;;;14.10;1.00;;;;;;4994033;28;20185;-74
2022/05/16 00:37:30;;;;;;;0.43;0.43;;;14.10;1.00;;;;;;4993446;28;20192;-74
2022/05/16 00:39:55;;;;;;;0.40;0.40;;;14.10;1.00;;;;;;4993211;28;20176;-73
2022/05/16 00:42:21;;;;;;;0.53;0.53;;;14.10;1.00;;;;;;4993569;28;20290;-73
2022/05/16 00:44:46;;;;;;;0.37;0.37;;;14.20;1.00;;;;;;4993048;28;20213;-74
2022/05/16 00:47:12;;;;;;;0.37;0.37;;;14.10;1.00;;;;;;4993571;28;20183;-74
2022/05/16 00:49:42;;;;;;;0.43;0.43;;;14.10;1.00;;;;;;4992840;28;20554;-76
2022/05/16 00:52:14;;;;;;;0.40;0.40;;;14.10;1.00;;;;;;4992869;28;20204;-74
2022/05/16 00:54:48;;;;;;;0.40;0.40;;;14.10;1.00;;;;;;4993344;28;20236;-74
2022/05/16 00:57:20;;;;;;;0.50;0.50;;;14.00;1.00;;;;;;4993443;28;20243;-74
2022/05/16 00:59:58;;;;;;;0.43;0.43;;;13.90;1.00;;;;;;4992652;28;20208;-74
2022/05/16 01:05:10;;;;;;;0.40;0.40;;;13.90;1.00;;;;;;4993030;28;20306;-74
2022/05/16 01:07:41;;;;;;;0.50;0.50;;;13.80;1.00;;;;;;4993144;28;20173;-74
2022/05/16 01:10:09;;;;;;;0.43;0.43;;;13.80;1.00;;;;;;4992564;28;20177;-74
2022/05/16 01:12:38;;;;;;;0.40;0.40;;;13.70;1.00;;;;;;4992857;28;20626;-74
2022/05/16 01:15:09;;;;;;;0.50;0.50;;;13.70;1.00;;;;;;4992816;28;20173;-74
2022/05/16 01:17:35;;;;;;;0.47;0.47;;;13.80;1.00;;;;;;4992682;28;20177;-74
2022/05/16 01:20:01;;;;;;;0.60;0.60;;;13.70;1.00;;;;;;4992334;28;20260;-74
2022/05/16 01:22:40;;;;;;;0.50;0.50;;;13.60;1.00;;;;;;4992881;28;20264;-73
2022/05/16 01:25:13;;;;;;;0.60;0.60;;;13.60;1.00;;;;;;4992705;28;20210;-74
2022/05/16 01:28:04;;;;;;;0.47;0.47;;;13.50;1.00;;;;;;4992360;28;20192;-74
2022/05/16 01:30:32;;;;;;;0.30;0.30;;;13.50;1.00;;;;;;4991801;28;20512;-73
2022/05/16 01:32:58;;;;;;;0.50;0.50;;;13.60;1.00;;;;;;4992512;28;20268;-74
2022/05/16 01:35:28;;;;;;;0.30;0.30;;;13.60;1.00;;;;;;4992724;28;20256;-74
2022/05/16 01:40:38;;;;;;;0.50;0.50;;;13.60;1.00;;;;;;4991917;28;20196;-74
2022/05/16 01:43:05;;;;;;;0.50;0.50;;;13.60;1.00;;;;;;4992379;28;20674;-74
2022/05/16 01:45:31;;;;;;;0.50;0.50;;;13.60;1.00;;;;;;4992038;28;20598;-73
2022/05/16 01:47:57;;;;;;;0.50;0.50;;;13.60;1.00;;;;;;4992348;28;20755;-74
2022/05/16 01:50:22;;;;;;;0.60;0.60;;;13.50;1.00;;;;;;4991690;28;20185;-73
2022/05/16 01:52:48;;;;;;;0.60;0.60;;;13.50;1.00;;;;;;4992267;28;20177;-73
2022/05/16 01:55:14;;;;;;;0.40;0.40;;;13.50;1.00;;;;;;4992449;28;20177;-73
2022/05/16 01:57:40;;;;;;;0.50;0.50;;;13.50;1.00;;;;;;4992337;28;20200;-73
2022/05/16 02:00:11;;;;;;;0.50;0.50;;;13.60;1.00;;;;;;4991736;28;20181;-73
2022/05/16 02:02:41;;;;;;;0.30;0.30;;;13.50;1.00;;;;;;4992203;28;20212;-73
2022/05/16 02:05:07;;;;;;;0.40;0.40;;;13.50;1.00;;;;;;4991959;28;20300;-74
2022/05/16 02:07:33;;;;;;;0.50;0.50;;;13.40;1.00;;;;;;4992379;28;20184;-73
2022/05/16 02:09:58;;;;;;;0.50;0.50;;;13.30;1.00;;;;;;4991938;28;20553;-74
2022/05/16 02:12:24;;;;;;;0.40;0.40;;;13.30;1.00;;;;;;4992308;28;20197;-74
2022/05/16 02:14:49;;;;;;;0.40;0.40;;;13.20;1.00;;;;;;4992163;28;20178;-74
2022/05/16 02:17:15;;;;;;;0.40;0.40;;;13.20;1.00;;;;;;4992284;28;20255;-74
2022/05/16 02:19:40;;;;;;;0.50;0.50;;;13.30;1.00;;;;;;4992130;28;20192;-74
2022/05/16 02:24:50;;;;;;;0.50;0.50;;;13.20;1.00;;;;;;4992319;28;20259;-76
2022/05/16 02:27:16;;;;;;;0.40;0.40;;;13.10;1.00;;;;;;4992035;28;20170;-73
2022/05/16 02:29:44;;;;;;;0.60;0.60;;;13.10;1.00;;;;;;4991504;28;20257;-74
2022/05/16 02:32:11;;;;;;;0.50;0.50;;;13.20;1.00;;;;;;4991804;28;20779;-74
2022/05/16 02:34:38;;;;;;;0.40;0.40;;;13.20;1.00;;;;;;4992249;28;20185;-74
2022/05/16 02:37:04;;;;;;;0.40;0.40;;;13.20;1.00;;;;;;4992145;28;20443;-74
2022/05/16 02:39:30;;;;;;;0.53;0.53;;;13.20;1.00;;;;;;4991391;28;20657;-74
2022/05/16 02:41:56;;;;;;;0.60;0.60;;;13.20;1.00;;;;;;4991692;28;20209;-73
2022/05/16 02:44:21;;;;;;;0.50;0.50;;;13.20;1.00;;;;;;4991815;28;20177;-74
2022/05/16 02:46:47;;;;;;;0.40;0.40;;;13.20;1.00;;;;;;4991693;28;20792;-75
2022/05/16 02:49:13;;;;;;;0.50;0.50;;;13.30;1.00;;;;;;4991442;28;20694;-74
2022/05/16 02:51:39;;;;;;;0.40;0.40;;;13.30;1.00;;;;;;4991816;28;20259;-75
2022/05/16 02:54:05;;;;;;;0.50;0.50;;;13.30;1.00;;;;;;4992249;28;20432;-74
2022/05/16 02:56:30;;;;;;;0.40;0.40;;;13.30;1.00;;;;;;4991961;28;20177;-74
2022/05/16 02:58:56;;;;;;;0.40;0.40;;;13.40;1.00;;;;;;4991602;28;20273;-75
2022/05/16 03:01:22;;;;;;;0.60;0.60;;;13.50;1.00;;;;;;4991918;28;20197;-74
2022/05/16 03:03:48;;;;;;;0.50;0.50;;;13.50;1.00;;;;;;4992263;28;20256;-75
2022/05/16 03:06:13;;;;;;;0.40;0.40;;;13.50;1.00;;;;;;4992179;28;20740;-74
2022/05/16 03:08:39;;;;;;;0.43;0.43;;;13.30;1.00;;;;;;4991935;28;20203;-75
2022/05/16 03:11:06;;;;;;;0.60;0.60;;;13.30;1.00;;;;;;4991314;28;20189;-75
2022/05/16 03:13:31;;;;;;;0.40;0.40;;;13.40;1.00;;;;;;4992335;28;20224;-75
2022/05/16 03:15:58;;;;;;;0.40;0.40;;;13.30;1.00;;;;;;4994103;28;20177;-74
2022/05/16 03:18:23;;;;;;;0.60;0.60;;;13.40;1.00;;;;;;4995445;28;20174;-74
2022/05/16 03:20:51;;;;;;;0.43;0.43;;;13.50;1.00;;;;;;4994747;28;20255;-75
2022/05/16 03:23:16;;;;;;;0.50;0.50;;;13.60;1.00;;;;;;4995460;28;20173;-74
2022/05/16 03:25:42;;;;;;;0.40;0.40;;;13.60;1.00;;;;;;4995561;28;20216;-74
2022/05/16 03:28:07;;;;;;;0.47;0.47;;;13.70;1.00;;;;;;4995826;28;20181;-74
2022/05/16 03:30:33;;;;;;;0.30;0.30;;;13.70;1.00;;;;;;4994285;28;20177;-74
2022/05/16 03:32:59;;;;;;;0.50;0.50;;;13.80;1.00;;;;;;4995465;28;20177;-74
2022/05/16 03:35:24;;;;;;;0.50;0.50;;;13.80;1.00;;;;;;4995124;28;20177;-74
2022/05/16 03:37:50;;;;;;;0.40;0.40;;;13.80;1.00;;;;;;4995062;28;20196;-74
2022/05/16 03:43:00;;;;;;;0.50;0.50;;;13.80;1.00;;;;;;4994786;28;20180;-74
2022/05/16 03:45:26;;;;;;;0.40;0.40;;;13.80;1.00;;;;;;4994756;28;20220;-75
2022/05/16 03:47:51;;;;;;;0.50;0.50;;;13.90;1.00;;;;;;4994731;28;20177;-74
2022/05/16 03:50:17;;;;;;;0.40;0.40;;;13.90;1.00;;;;;;4994311;28;20205;-75
2022/05/16 03:52:43;;;;;;;0.53;0.53;;;13.90;1.00;;;;;;4994157;28;20189;-75
2022/05/16 03:55:13;;;;;;;0.30;0.30;;;13.90;1.00;;;;;;4994676;28;20593;-75
2022/05/16 03:57:40;;;;;;;0.50;0.50;;;13.90;1.00;;;;;;4994510;28;20220;-75
2022/05/16 04:00:09;;;;;;;0.43;0.43;;;13.90;1.00;;;;;;4993909;28;20261;-75
2022/05/16 04:02:39;;;;;;;0.50;0.50;;;14.00;1.00;;;;;;4994582;28;20733;-76
2022/05/16 04:05:05;;;;;;;0.40;0.40;;;14.00;1.00;;;;;;4994434;28;20215;-76
2022/05/16 04:07:31;;;;;;;0.50;0.50;;;14.10;1.00;;;;;;4994052;28;20181;-75
2022/05/16 04:09:56;;;;;;;0.50;0.50;;;14.10;1.00;;;;;;4993973;28;20208;-75
2022/05/16 04:12:22;;;;;;;0.40;0.40;;;14.20;1.00;;;;;;4993971;28;20200;-75
2022/05/16 04:14:49;;;;;;;0.37;0.37;;;14.20;1.00;;;;;;4994067;28;20192;-75
2022/05/16 04:17:14;;;;;;;0.40;0.40;;;14.20;1.00;;;;;;4994090;28;20177;-73
2022/05/16 04:19:40;;;;;;;0.50;0.50;;;14.30;1.00;;;;;;4993337;28;20204;-75
2022/05/16 04:22:06;;;;;;;0.40;0.40;;;14.20;1.00;;;;;;4993775;28;20243;-73
2022/05/16 04:24:31;;;;;;;0.37;0.37;;;14.20;1.00;;;;;;4993578;28;20178;-74
2022/05/16 04:26:57;;;;;;;0.47;0.47;;;14.20;1.00;;;;;;4993279;28;20213;-74
2022/05/16 04:29:24;;;;;;;0.50;0.50;;;14.20;1.00;;;;;;4993324;28;20606;-74
2022/05/16 04:31:50;;;;;;;0.40;0.40;;;14.20;1.00;;;;;;4993828;28;20205;-74
2022/05/16 04:34:16;;;;;;;0.30;0.30;;;14.20;1.00;;;;;;4993964;28;20178;-74
2022/05/16 04:36:41;;;;;;;0.40;0.40;;;14.10;1.00;;;;;;4993715;28;20181;-74
2022/05/16 04:39:07;;;;;;;0.50;0.50;;;14.30;1.00;;;;;;4992641;28;20226;-74
2022/05/16 04:44:17;;;;;;;0.50;0.50;;;14.30;1.00;;;;;;4993572;28;20279;-74
2022/05/16 04:46:43;;;;;;;0.40;0.40;;;14.30;1.00;;;;;;4993818;28;20228;-74
2022/05/16 04:49:08;;;;;;;0.53;0.53;;;14.40;1.00;;;;;;4992980;28;20200;-75
2022/05/16 04:51:34;;;;;;;0.40;0.40;;;14.50;48.00;;;;;;4993170;28;20662;-74
2022/05/16 04:53:59;;;;;;;0.40;0.40;;;14.50;44.20;;;;;;4993369;28;20184;-74
2022/05/16 04:56:25;;;;;;;0.50;0.50;;;14.60;14.10;;;;;;4993496;28;20188;-74
2022/05/16 04:58:50;;;;;;;0.40;0.40;;;14.60;1.30;;;;;;4985028;28;20173;-73
2022/05/16 05:01:16;;;;;;;0.40;0.40;;;14.60;1.00;;;;;;4992882;28;20686;-75
2022/05/16 05:03:42;;;;;;;0.37;0.37;;;14.50;1.00;;;;;;4992782;28;20586;-75
2022/05/16 05:06:09;;;;;;;0.40;0.40;;;14.50;1.00;;;;;;4992967;28;20240;-73
2022/05/16 05:08:34;;;;;;;0.50;0.50;;;14.60;4.20;;;;;;4993244;28;20173;-74
2022/05/16 05:16:30;;;;;;;0.40;0.40;;;14.70;15.20;;;;;;4992944;28;20265;-74
2022/05/16 05:18:55;;;;;;;0.40;0.40;;;14.80;99.90;;;;;;4992575;28;20177;-75
2022/05/16 05:21:21;;;;;;;0.40;0.40;;;14.90;63.90;;;;;;4992999;28;20619;-74
2022/05/16 05:23:47;;;;;;;0.30;0.30;;;14.90;99.90;;;;;;4992780;28;20188;-75
2022/05/16 05:26:14;;;;;;;0.37;0.37;;;15.00;99.90;;;;;;4992784;28;20586;-74
2022/05/16 05:28:40;;;;;;;0.40;0.40;;;15.00;99.90;;;;;;4992578;28;20630;-74
2022/05/16 05:31:15;;;;;;;0.30;0.30;;;15.10;99.90;;;;;;4991938;28;20201;-74
2022/05/16 05:33:41;;;;;;;0.50;0.50;;;15.10;99.90;;;;;;4984257;28;20173;-76
2022/05/16 05:36:08;;;;;;;0.50;0.50;;;14.90;99.90;;;;;;4989345;28;20181;-74
2022/05/16 05:38:36;;;;;;;0.40;0.40;;;14.90;99.90;;;;;;4991619;28;20185;-75
2022/05/16 05:41:03;;;;;;;0.37;0.37;;;14.80;99.90;;;;;;4991969;28;20201;-74
2022/05/16 05:43:28;;;;;;;0.40;0.40;;;14.80;99.90;;;;;;4989985;28;20749;-75
2022/05/16 05:45:54;;;;;;;0.30;0.30;;;14.90;99.90;;;;;;4987125;28;20225;-74
2022/05/16 05:48:19;;;;;;;0.50;0.50;;;14.90;99.90;;;;;;4992017;28;20570;-75
2022/05/16 05:50:45;;;;;;;0.40;0.40;;;15.00;99.90;;;;;;4992014;28;20205;-75
2022/05/16 05:53:10;;;;;;;0.50;0.50;;;15.10;99.90;;;;;;4992447;28;20252;-75
2022/05/16 05:55:36;;;;;;;0.33;0.33;;;15.20;99.90;;;;;;4992338;28;20511;-76
2022/05/16 05:58:01;;;;;;;0.40;0.40;;;15.20;99.90;;;;;;4992460;28;20635;-75
2022/05/16 06:00:27;;;;;;;0.40;0.40;;;15.20;99.90;;;;;;4988355;28;20265;-76
2022/05/16 06:02:52;;;;;;;0.50;0.50;;;15.10;99.90;;;;;;4972693;28;20651;-75
2022/05/16 06:05:21;;;;;;;0.50;0.50;;;15.10;99.90;;;;;;4991626;28;20216;-75
2022/05/16 06:07:46;;;;;;;0.37;0.37;;;15.10;99.90;;;;;;4992093;28;20698;-75
2022/05/16 06:10:12;;;;;;;0.40;0.40;;;15.20;37.20;;;;;;4991641;28;20272;-75
2022/05/16 06:12:39;;;;;;;0.40;0.40;;;15.30;1.00;;;;;;4991927;28;20204;-75
2022/05/16 06:15:07;;;;;;;0.40;0.40;;;15.30;1.00;;;;;;4991961;28;20185;-75
2022/05/16 06:17:35;;;;;;;0.40;0.40;;;15.40;1.00;;;;;;4992088;28;20540;-76
2022/05/16 06:20:01;;;;;;;0.40;0.40;;;15.50;1.00;;;;;;4991334;28;20184;-76
2022/05/16 06:22:34;;;;;;;0.40;0.40;;;15.60;1.00;;;;;;4991978;28;20204;-75
2022/05/16 06:27:44;;;;;;;0.40;0.40;;;15.70;1.00;;;;;;4988782;28;20192;-74
2022/05/16 06:30:11;;;;;;;0.50;0.50;;;15.80;1.00;;;;;;4986841;28;20398;-75
2022/05/16 06:32:36;;;;;;;0.50;0.50;;;15.80;1.00;;;;;;4992559;28;20203;-75
2022/05/16 06:35:02;;;;;;;0.40;0.40;;;15.80;1.00;;;;;;4989312;28;20177;-76
2022/05/16 06:37:27;;;;;;;0.37;0.37;;;15.90;1.00;;;;;;4989445;28;20185;-75
2022/05/16 06:39:53;;;;;;;0.40;0.40;;;16.00;1.00;;;;;;4985715;28;20229;-76
2022/05/16 06:42:19;;;;;;;0.40;0.40;;;16.10;1.00;;;;;;4991673;28;20566;-76
2022/05/16 06:44:44;;;;;;;0.43;0.43;;;16.20;99.90;;;;;;4991702;28;20187;-76
2022/05/16 06:47:10;;;;;;;0.40;0.40;;;16.30;1.00;;;;;;4991668;28;20182;-76
2022/05/16 06:49:36;;;;;;;0.50;0.50;;;16.30;1.00;;;;;;4991812;28;20257;-76
2022/05/16 06:52:01;;;;;;;0.30;0.30;;;16.50;1.00;;;;;;4995371;28;20550;-76
2022/05/16 06:54:27;;;;;;;0.50;0.50;;;16.60;1.00;;;;;;4995193;28;20184;-76
2022/05/16 06:56:52;;;;;;;0.40;0.40;;;16.80;1.00;;;;;;4995506;28;20177;-77
2022/05/16 06:59:19;;;;;;;0.30;0.30;;;17.00;99.90;;;;;;4995021;28;20228;-76
2022/05/16 07:01:45;;;;;;;0.30;0.30;;;17.20;21.30;;;;;;4995307;28;20280;-76
2022/05/16 07:04:10;;;;;;;0.30;0.30;;;17.40;1.00;;;;;;4995137;28;20276;-76
2022/05/16 07:06:36;;;;;;;0.40;0.40;;;17.60;99.90;;;;;;4995082;28;20224;-76
2022/05/16 07:09:01;;;;;;;0.30;0.30;;;17.90;1.00;;;;;;4994561;28;20213;-76
2022/05/16 07:11:27;;;;;;;0.30;0.30;;;18.10;1.00;;;;;;4995108;28;20201;-75
2022/05/16 07:13:53;;;;;;;0.40;0.40;;;18.30;99.90;;;;;;4992224;28;20192;-76
2022/05/16 07:16:18;;;;;;;0.40;0.40;;;18.70;56.40;;;;;;4993979;28;20209;-75
2022/05/16 07:18:44;;;;;;;0.30;0.30;;;18.90;1.00;;;;;;4994687;28;20184;-75
2022/05/16 07:21:09;;;;;;;0.30;0.30;;;19.20;1.00;;;;;;4994034;28;20231;-76
2022/05/16 07:23:35;;;;;;;0.30;0.30;;;19.50;1.00;;;;;;4990235;28;20193;-76
2022/05/16 07:28:44;;;;;;;0.30;0.30;;;19.90;1.00;;;;;;4992954;28;20628;-76
2022/05/16 07:31:10;;;;;;;0.30;0.30;;;20.20;99.90;;;;;;4991482;28;20244;-76
2022/05/16 07:33:36;;;;;;;0.37;0.37;;;20.50;1.00;;;;;;4993915;28;20204;-76
2022/05/16 07:36:02;;;;;;;0.40;0.40;;;20.60;1.00;;;;;;4994091;28;20239;-77
2022/05/16 07:38:28;;;;;;;0.37;0.37;;;20.90;99.90;;;;;;4999822;28;20177;-78
2022/05/16 07:40:54;;;;;;;0.30;0.30;;;21.40;7.20;;;;;;4991145;28;20204;-76
2022/05/16 07:43:20;;;;;;;0.30;0.30;;;21.50;8.20;;;;;;4994954;28;20200;-74
2022/05/16 07:45:46;;;;;;;0.30;0.30;;;21.50;1.00;;;;;;4993570;28;20295;-75
2022/05/16 07:48:13;;;;;;;0.37;0.37;;;21.40;1.00;;;;;;4975147;28;20204;-76
2022/05/16 07:50:40;;;;;;;0.30;0.30;;;21.40;1.00;;;;;;4979699;28;20658;-76
2022/05/16 07:53:11;;;;;;;0.40;0.40;;;21.40;25.20;;;;;;4985206;28;20177;-74
2022/05/16 07:55:43;;;;;;;0.40;0.40;;;21.40;27.90;;;;;;4979831;28;20178;-73
2022/05/16 07:58:09;;;;;;;0.30;0.30;;;21.30;8.70;;;;;;4988071;28;20189;-74
2022/05/16 08:00:35;;;;;;;0.30;0.30;;;21.30;1.00;;;;;;4986687;28;20181;-75
2022/05/16 08:03:02;;;;;;;0.20;0.20;;;21.40;11.80;;;;;;4989586;28;20189;-75
2022/05/16 08:05:27;;;;;;;0.30;0.30;;;21.30;99.90;;;;;;4985837;28;20224;-73
2022/05/16 08:10:39;;;;;;;0.20;0.20;;;21.60;99.90;;;;;;4988086;28;20299;-74
2022/05/16 08:13:10;;;;;;;0.30;0.30;;;22.00;1.00;;;;;;4986175;28;20265;-74
2022/05/16 08:15:38;;;;;;;0.27;0.27;;;22.30;1.00;;;;;;4989138;28;20264;-74
2022/05/16 08:18:05;;;;;;;0.40;0.40;;;22.50;1.00;;;;;;4993845;28;20199;-74
2022/05/16 08:20:33;;;;;;;0.30;0.30;;;22.50;1.00;;;;;;4993230;28;20181;-75
2022/05/16 08:22:59;;;;;;;0.30;0.30;;;22.30;1.00;;;;;;4992164;28;20239;-75
2022/05/16 08:25:24;;;;;;;0.23;0.23;;;22.50;1.00;;;;;;4982871;28;20209;-74
2022/05/16 08:27:50;;;;;;;0.30;0.30;;;22.50;1.00;;;;;;4985706;28;20177;-75
2022/05/16 08:30:18;;;;;;;0.30;0.30;;;22.40;1.00;;;;;;4984239;28;20184;-75
2022/05/16 08:32:44;;;;;;;0.27;0.27;;;22.30;1.00;;;;;;4992213;28;20524;-73
2022/05/16 08:35:11;;;;;;;0.30;0.30;;;22.50;1.00;;;;;;4988668;28;20596;-73
2022/05/16 08:40:37;;;;;;;0.30;0.30;;;22.70;99.90;;;;;;4988066;28;20255;-74
2022/05/16 08:43:15;;;;;;;0.30;0.30;;;22.80;2.20;;;;;;4984125;28;20244;-74
2022/05/16 08:45:50;;;;;;;0.30;0.30;;;22.90;1.00;;;;;;4993032;28;20255;-72
2022/05/16 08:48:22;;;;;;;0.30;0.30;;;23.00;1.00;;;;;;4992914;28;20196;-73
2022/05/16 08:51:04;;;;;;;0.40;0.40;;;23.40;1.00;;;;;;4992243;28;20282;-73
2022/05/16 08:53:44;;;;;;;0.30;0.30;;;24.00;1.00;;;;;;4992935;28;20646;-73
2022/05/16 08:56:16;;;;;;;0.40;0.40;;;24.60;1.00;;;;;;4987509;28;20186;-73
2022/05/16 08:58:49;;;;;;;0.40;0.40;;;24.50;1.00;;;;;;4994578;28;20224;-73
2022/05/16 09:01:24;;;;;;;0.30;0.30;;;24.40;1.00;;;;;;4999694;28;20201;-73
2022/05/16 09:04:14;;;;;;;0.40;0.40;;;24.60;1.00;;;;;;4992391;28;20203;-72
2022/05/16 09:06:49;;;;;;;0.40;0.40;;;25.00;1.00;;;;;;4992749;28;20220;-76
2022/05/16 09:09:20;;;;;;;0.40;0.40;;;25.80;1.00;;;;;;4992314;28;20181;-75
2022/05/16 09:12:09;;;;;;;0.40;0.40;;;26.70;1.00;;;;;;4992658;28;20252;-75
2022/05/16 09:14:58;;;;;;;0.40;0.40;;;27.40;1.00;;;;;;4992474;28;20188;-74
2022/05/16 09:17:46;;;;;;;0.40;0.40;;;27.90;1.00;;;;;;4982467;28;20177;-75
2022/05/16 09:20:25;;;;;;;0.40;0.40;;;27.80;1.00;;;;;;4982800;28;20197;-74
2022/05/16 09:22:55;;;;;;;0.30;0.30;;;27.50;1.00;;;;;;4987527;28;20200;-74
2022/05/16 09:25:26;;;;;;;0.40;0.40;;;27.20;1.00;;;;;;4981653;28;20213;-73
2022/05/16 09:30:45;;;;;;;0.30;0.30;;;25.90;1.00;;;;;;4986636;28;20283;-74
2022/05/16 09:33:22;;;;;;;0.50;0.50;;;25.50;1.00;;;;;;4980688;28;20178;-75
2022/05/16 09:36:00;;;;;;;0.30;0.30;;;25.20;1.00;;;;;;4989494;28;20180;-74
2022/05/16 09:38:26;;;;;;;0.30;0.30;;;25.20;1.00;;;;;;4985967;28;20224;-74
2022/05/16 09:41:01;;;;;;;0.30;0.30;;;25.70;1.00;;;;;;4991688;28;20197;-75
2022/05/16 09:43:31;;;;;;;0.30;0.30;;;26.10;1.00;;;;;;4992113;28;20179;-73
2022/05/16 09:46:14;;;;;;;0.30;0.30;;;26.20;1.00;;;;;;4991882;28;20221;-76
2022/05/16 09:48:39;;;;;;;0.30;0.30;;;26.70;1.00;;;;;;4986217;28;20194;-75
2022/05/16 09:51:07;;;;;;;0.30;0.30;;;26.90;1.00;;;;;;4991246;28;20666;-74
2022/05/16 09:53:43;;;;;;;0.50;0.50;;;26.80;1.00;;;;;;4983053;28;20185;-74
2022/05/16 09:56:30;;;;;;;0.30;0.30;;;26.40;1.00;;;;;;4985610;28;20188;-76
2022/05/16 09:59:01;;;;;;;0.30;0.30;;;26.20;1.00;;;;;;4985144;28;20177;-74
2022/05/16 10:01:50;;;;;;;0.30;0.30;;;25.60;1.00;;;;;;4987025;28;20199;-72
2022/05/16 10:04:19;;;;;;;0.40;0.40;;;25.30;1.00;;;;;;4987786;28;20184;-73
2022/05/16 10:07:05;;;;;;;0.40;0.40;;;25.10;1.00;;;;;;4987338;28;20674;-73
2022/05/16 10:09:39;;;;;;;0.40;0.40;;;25.10;1.00;;;;;;4987966;28;20252;-73
2022/05/16 10:12:08;;;;;;;0.30;0.30;;;25.00;1.00;;;;;;4991569;28;20274;-71
2022/05/16 10:14:36;;;;;;;0.23;0.23;;;24.90;1.00;;;;;;4991866;28;20181;-72
2022/05/16 10:17:03;;;;;;;0.40;0.40;;;24.80;1.00;;;;;;4991156;28;20173;-72
2022/05/16 10:19:31;;;;;;;0.40;0.40;;;24.70;1.00;;;;;;4991332;28;20204;-72
2022/05/16 10:22:02;;;;;;;0.50;0.50;;;24.50;1.00;;;;;;4991630;28;20205;-72
2022/05/16 10:24:31;;;;;;;0.40;0.40;;;24.30;1.00;;;;;;4987737;28;20192;-72
2022/05/16 10:27:05;;;;;;;0.40;0.40;;;24.10;1.00;;;;;;4992841;28;20208;-72
2022/05/16 10:29:36;;;;;;;0.40;0.40;;;24.00;1.00;;;;;;4993285;28;20180;-75
2022/05/16 10:34:52;;;;;;;0.20;0.20;;;23.50;1.00;;;;;;4985127;28;20185;-73
2022/05/16 10:37:19;;;;;;;0.50;0.50;;;23.40;1.00;;;;;;4989680;28;20188;-74
2022/05/16 10:40:08;;;;;;;0.30;0.30;;;23.30;1.00;;;;;;4992954;28;20276;-73
2022/05/16 10:42:39;;;;;;;0.20;0.20;;;23.20;1.00;;;;;;4993280;28;20203;-72
2022/05/16 10:45:12;;;;;;;0.30;0.30;;;23.30;1.00;;;;;;4996264;28;20584;-73
2022/05/16 10:48:08;;;;;;;0.33;0.33;;;23.30;1.00;;;;;;4995742;28;20180;-72
2022/05/16 10:50:38;;;;;;;0.30;0.30;;;23.50;1.00;;;;;;4994674;28;20173;-73
2022/05/16 10:53:17;;;;;;;0.30;0.30;;;23.60;1.00;;;;;;4995682;28;20523;-72
2022/05/16 10:55:58;;;;;;;0.30;0.30;;;23.70;1.00;;;;;;4986613;28;20685;-73
2022/05/16 10:58:48;;;;;;;0.30;0.30;;;23.70;1.00;;;;;;4991210;28;20185;-74
2022/05/16 11:01:25;;;;;;;0.40;0.40;;;23.60;1.00;;;;;;4989769;28;20193;-74
2022/05/16 11:04:16;;;;;;;0.30;0.30;;;23.40;1.00;;;;;;4984304;28;20170;-74
2022/05/16 11:07:05;;;;;;;0.23;0.23;;;23.30;1.00;;;;;;4989010;28;20403;-73
2022/05/16 11:09:49;;;;;;;0.30;0.30;;;23.20;1.00;;;;;;4979533;28;20228;-74
2022/05/16 11:12:41;;;;;;;0.33;0.33;;;23.20;1.00;;;;;;4992083;28;20274;-76
2022/05/16 11:15:31;;;;;;;0.23;0.23;;;23.00;1.00;;;;;;4992480;28;20169;-75
2022/05/16 11:18:29;;;;;;;0.30;0.30;;;23.00;1.00;;;;;;4990893;28;20173;-73
2022/05/16 11:21:03;;;;;;;0.30;0.30;;;22.80;1.00;;;;;;4991305;28;20197;-74
2022/05/16 11:23:53;;;;;;;0.33;0.33;;;22.80;1.00;;;;;;4990095;28;20549;-74
2022/05/16 11:26:38;;;;;;;0.30;0.30;;;22.70;1.00;;;;;;4991713;28;20213;-74
2022/05/16 11:29:18;;;;;;;0.23;0.23;;;22.50;1.00;;;;;;4989380;28;20567;-74
2022/05/16 11:32:06;;;;;;;0.30;0.30;;;22.40;1.00;;;;;;4992228;28;20581;-74
2022/05/16 11:34:43;;;;;;;0.30;0.30;;;22.20;1.00;;;;;;4991976;28;20185;-74
2022/05/16 11:37:38;;;;;;;0.30;0.30;;;22.00;1.00;;;;;;4993089;28;20236;-74
2022/05/16 11:40:08;;;;;;;0.30;0.30;;;21.90;1.00;;;;;;4991120;28;20178;-74
2022/05/16 11:42:52;;;;;;;0.40;0.40;;;21.80;1.00;;;;;;4990817;28;20196;-75
2022/05/16 11:45:39;;;;;;;0.30;0.30;;;21.60;1.00;;;;;;4985360;28;20204;-76
2022/05/16 11:48:30;;;;;;;0.40;0.40;;;21.50;1.00;;;;;;4985338;28;20181;-76
2022/05/16 11:51:37;;;;;;;0.30;0.30;;;21.30;1.00;;;;;;4992769;28;20196;-76
2022/05/16 11:54:04;;;;;;;0.30;0.30;;;21.10;1.00;;;;;;4992143;28;20189;-75
2022/05/16 12:02:29;;;;;;;0.40;0.40;;;20.70;1.00;;;;;;4994141;28;20309;-76
2022/05/16 12:05:29;;;;;;;0.30;0.30;;;20.60;1.00;;;;;;4993964;28;20547;-75
2022/05/16 12:08:13;;;;;;;0.30;0.30;;;20.60;1.00;;;;;;4994494;28;20643;-76
2022/05/16 12:11:08;;;;;;;0.30;0.30;;;20.40;1.00;;;;;;4991733;28;20193;-76
2022/05/16 12:13:39;;;;;;;0.30;0.30;;;20.00;1.00;;;;;;4993653;28;20170;-76
2022/05/16 12:16:18;;;;;;;0.30;0.30;;;19.60;1.00;;;;;;4997938;28;20247;-75
2022/05/16 12:18:49;;;;;;;0.40;0.40;;;19.30;1.00;;;;;;4994619;28;20185;-75
2022/05/16 12:21:32;;;;;;;0.30;0.30;;;19.00;1.00;;;;;;4988942;28;20205;-76
2022/05/16 12:24:27;;;;;;;0.27;0.27;;;18.80;1.00;;;;;;4993832;28;20212;-74
2022/05/16 12:27:10;;;;;;;0.30;0.30;;;18.60;1.00;;;;;;4996204;28;20682;-76
2022/05/16 12:29:49;;;;;;;0.40;0.40;;;18.60;1.00;;;;;;4997599;28;20181;-76
2022/05/16 12:32:42;;;;;;;0.30;0.30;;;18.60;1.00;;;;;;4991320;28;20757;-77
2022/05/16 12:35:11;;;;;;;0.40;0.40;;;18.50;1.00;;;;;;4993128;28;20308;-77
2022/05/16 12:37:38;;;;;;;0.30;0.30;;;18.50;1.00;;;;;;4993535;28;20173;-75
2022/05/16 12:40:06;;;;;;;0.30;0.30;;;18.60;1.00;;;;;;4984927;28;20192;-77
2022/05/16 12:43:06;;;;;;;0.30;0.30;;;18.60;1.00;;;;;;4993448;28;20247;-75
2022/05/16 12:45:43;;;;;;;0.40;0.40;;;18.70;1.00;;;;;;4993741;28;20588;-77
2022/05/16 12:48:45;;;;;;;0.30;0.30;;;18.80;1.00;;;;;;4988511;28;20178;-77
2022/05/16 12:51:26;;;;;;;0.30;0.30;;;19.00;1.00;;;;;;4987055;28;20220;-77
2022/05/16 12:54:22;;;;;;;0.30;0.30;;;19.30;1.00;;;;;;4993643;28;20172;-76
2022/05/16 12:56:53;;;;;;;0.30;0.30;;;19.50;1.00;;;;;;4993421;28;20173;-75
2022/05/16 12:59:41;;;;;;;0.30;0.30;;;19.70;1.00;;;;;;4992780;28;20188;-76
2022/05/16 13:02:32;;;;;;;0.40;0.40;;;19.90;1.00;;;;;;4993737;28;20204;-77
2022/05/16 13:05:19;;;;;;;0.30;0.30;;;20.00;1.00;;;;;;4993507;28;20177;-77
2022/05/16 13:08:20;;;;;;;0.30;0.30;;;20.20;1.00;;;;;;4993850;28;20597;-77
2022/05/16 13:11:09;;;;;;;0.30;0.30;;;20.50;3.30;;;;;;4992612;28;20255;-76
2022/05/16 13:13:37;;;;;;;0.30;0.30;;;20.80;99.90;;;;;;4993257;28;20173;-76
2022/05/16 13:16:16;;;;;;;0.30;0.30;;;21.00;1.00;;;;;;4985520;28;20208;-77
2022/05/16 13:18:51;;;;;;;0.30;0.30;;;21.30;99.90;;;;;;4989119;28;20253;-77
2022/05/16 13:21:17;;;;;;;0.30;0.30;;;21.40;99.90;;;;;;4993420;28;20201;-77
2022/05/16 13:23:43;;;;;;;0.30;0.30;;;21.50;99.90;;;;;;4993035;28;20296;-77
2022/05/16 13:31:44;;;;;;;0.30;0.30;;;21.60;1.00;;;;;;4993175;28;20720;-77
2022/05/16 13:34:13;;;;;;;0.20;0.20;;;21.60;1.00;;;;;;4989759;28;20178;-76
2022/05/16 13:36:45;;;;;;;0.30;0.30;;;21.60;1.00;;;;;;4981642;28;20219;-77
2022/05/16 13:39:14;;;;;;;0.37;0.37;;;21.80;99.90;;;;;;4989905;28;20735;-77
2022/05/16 13:41:40;;;;;;;0.30;0.30;;;22.20;1.00;;;;;;4989952;28;20256;-76
2022/05/16 13:44:11;;;;;;;0.30;0.30;;;22.60;99.90;;;;;;4983451;28;20185;-75
2022/05/16 13:46:36;;;;;;;0.30;0.30;;;22.90;99.90;;;;;;4985451;28;20255;-75
2022/05/16 13:49:10;;;;;;;0.30;0.30;;;23.10;4.50;;;;;;4992675;28;20208;-74
2022/05/16 13:51:47;;;;;;;0.30;0.30;;;23.30;1.00;;;;;;4992479;28;20259;-75
2022/05/16 13:54:15;;;;;;;0.20;0.20;;;23.70;1.00;;;;;;4992186;28;20204;-75
2022/05/16 13:56:47;;;;;;;0.20;0.20;;;23.80;1.00;;;;;;4979977;28;20173;-76
2022/05/16 13:59:12;;;;;;;0.30;0.30;;;24.00;1.00;;;;;;4990558;28;20181;-75
2022/05/16 14:01:48;;;;;;;0.30;0.30;;;24.00;1.00;;;;;;4992252;28;20749;-76